createdAt,value
2023-03-05T00:01:57.015Z,7.07
2023-03-05T00:05:00.267Z,8.27
2023-03-05T00:08:03.535Z,7.65
2023-03-05T00:11:09.788Z,7.20
2023-03-05T00:14:15.562Z,5.63
2023-03-05T00:17:18.849Z,5.22
2023-03-05T00:20:22.118Z,5.53
2023-03-05T00:23:25.284Z,5.28
2023-03-05T00:26:29.480Z,5.05
2023-03-05T00:29:34.046Z,5.07
2023-03-05T00:32:37.723Z,3.90
2023-03-05T00:35:41.476Z,4.00
2023-03-05T00:38:44.883Z,4.88
2023-03-05T00:41:48.104Z,5.60
2023-03-05T00:44:53.304Z,4.47
2023-03-05T00:47:56.493Z,4.15
2023-03-05T00:50:59.752Z,3.80
2023-03-05T00:54:03.029Z,3.78
2023-03-05T00:57:06.807Z,3.95
2023-03-05T01:00:13.386Z,3.83
2023-03-05T01:03:16.601Z,4.40
2023-03-05T01:06:19.837Z,4.55
2023-03-05T01:09:25.187Z,3.97
2023-03-05T01:12:28.577Z,4.47
2023-03-05T01:15:33.137Z,4.75
2023-03-05T01:18:36.396Z,4.60
2023-03-05T01:21:39.566Z,4.60
2023-03-05T01:24:42.774Z,4.63
2023-03-05T01:27:46.122Z,4.90
2023-03-05T01:30:50.762Z,4.50
2023-03-05T01:33:54.101Z,3.83
2023-03-05T01:36:57.230Z,4.05
2023-03-05T01:40:00.400Z,3.83
2023-03-05T01:43:23.400Z,3.53
2023-03-05T01:46:34.696Z,3.80
2023-03-05T01:49:41.061Z,4.10
2023-03-05T01:52:49.760Z,3.80
2023-03-05T01:55:54.879Z,4.28
2023-03-05T01:59:03.468Z,4.35
2023-03-05T02:02:09.050Z,4.10
2023-03-05T02:05:17.299Z,4.38
2023-03-05T02:08:23.053Z,3.92
2023-03-05T02:11:26.985Z,4.65
2023-03-05T02:14:31.185Z,4.53
2023-03-05T02:17:35.810Z,3.88
2023-03-05T02:20:46.380Z,3.50
2023-03-05T02:23:51.255Z,3.70
2023-03-05T02:26:54.916Z,3.50
2023-03-05T02:29:58.128Z,3.70
2023-03-05T02:33:01.502Z,3.70
2023-03-05T02:36:05.781Z,4.22
2023-03-05T02:39:10.758Z,4.35
2023-03-05T02:42:14.381Z,4.03
2023-03-05T02:45:18.318Z,4.30
2023-03-05T02:48:21.623Z,4.07
2023-03-05T02:51:24.983Z,4.45
2023-03-05T02:54:30.476Z,5.82
2023-03-05T02:57:33.863Z,5.88
2023-03-05T03:04:24.173Z,6.47
2023-03-05T03:07:27.367Z,6.78
2023-03-05T03:10:32.356Z,5.45
2023-03-05T03:13:35.594Z,5.85
2023-03-05T03:16:38.755Z,5.30
2023-03-05T03:19:42.839Z,4.75
2023-03-05T03:22:47.176Z,4.63
2023-03-05T03:25:51.790Z,5.28
2023-03-05T03:28:55.051Z,4.57
2023-03-05T03:31:58.457Z,4.55
2023-03-05T03:35:01.922Z,4.70
2023-03-05T03:38:05.305Z,4.53
2023-03-05T03:41:10.259Z,4.88
2023-03-05T03:44:14.190Z,4.88
2023-03-05T03:47:17.658Z,4.75
2023-03-05T03:50:21.536Z,4.80
2023-03-05T03:53:24.707Z,4.80
2023-03-05T03:56:29.384Z,4.35
2023-03-05T03:59:32.523Z,4.55
2023-03-05T04:02:35.700Z,4.60
2023-03-05T04:05:38.914Z,4.60
2023-03-05T04:08:42.185Z,4.95
2023-03-05T04:11:46.778Z,4.70
2023-03-05T04:14:50.791Z,4.95
2023-03-05T04:17:53.923Z,4.50
2023-03-05T04:20:57.098Z,4.30
2023-03-05T04:24:00.258Z,4.57
2023-03-05T04:27:04.912Z,4.40
2023-03-05T04:30:10.348Z,4.80
2023-03-05T04:33:13.548Z,4.97
2023-03-05T04:36:16.771Z,4.10
2023-03-05T04:39:20.986Z,4.07
2023-03-05T04:42:25.516Z,4.93
2023-03-05T04:45:28.719Z,5.00
2023-03-05T04:48:31.883Z,4.97
2023-03-05T04:51:35.090Z,4.70
2023-03-05T04:54:38.253Z,4.65
2023-03-05T04:57:43.088Z,4.47
2023-03-05T05:00:46.235Z,4.57
2023-03-05T05:03:49.363Z,5.03
2023-03-05T05:06:55.898Z,4.43
2023-03-05T05:09:59.088Z,3.95
2023-03-05T05:13:03.589Z,4.05
2023-03-05T05:16:08.420Z,3.95
2023-03-05T05:19:11.990Z,5.55
2023-03-05T05:22:15.184Z,10.63
2023-03-05T05:25:18.451Z,8.18
2023-03-05T05:28:22.953Z,4.90
2023-03-05T05:31:26.164Z,5.30
2023-03-05T05:34:29.328Z,6.07
2023-03-05T05:37:32.489Z,6.10
2023-03-05T05:40:35.730Z,7.32
2023-03-05T05:43:40.790Z,7.13
2023-03-05T05:46:44.119Z,6.40
2023-03-05T05:49:47.458Z,7.60
2023-03-05T05:52:52.161Z,6.88
2023-03-05T05:55:55.314Z,8.02
2023-03-05T05:59:00.011Z,8.15
2023-03-05T06:02:03.663Z,7.38
2023-03-05T06:05:09.251Z,7.22
2023-03-05T06:08:12.453Z,6.90
2023-03-05T06:11:19.409Z,9.15
2023-03-05T06:14:24.215Z,8.27
2023-03-05T06:17:30.804Z,8.55
2023-03-05T06:20:34.169Z,8.25
2023-03-05T06:23:37.560Z,8.70
2023-03-05T06:26:40.814Z,8.13
2023-03-05T06:29:45.958Z,8.43
2023-03-05T06:32:49.151Z,8.85
2023-03-05T06:35:52.445Z,7.78
2023-03-05T06:38:56.208Z,7.30
2023-03-05T06:41:59.436Z,6.95
2023-03-05T06:45:04.855Z,6.65
2023-03-05T06:48:08.520Z,7.43
2023-03-05T06:51:16.352Z,6.78
2023-03-05T06:54:21.696Z,6.57
2023-03-05T06:57:25.008Z,9.20
2023-03-05T07:00:30.843Z,7.15
2023-03-05T07:03:35.109Z,6.90
2023-03-05T07:06:39.807Z,6.82
2023-03-05T07:09:45.957Z,7.18
2023-03-05T07:12:49.276Z,7.55
2023-03-05T07:15:54.254Z,9.20
2023-03-05T07:18:58.883Z,7.25
2023-03-05T07:22:02.120Z,7.50
2023-03-05T07:25:05.979Z,6.70
2023-03-05T07:28:10.593Z,6.35
2023-03-05T07:31:17.799Z,6.47
2023-03-05T07:34:21.174Z,6.18
2023-03-05T07:37:24.647Z,5.60
2023-03-05T07:40:27.904Z,6.72
2023-03-05T07:43:31.262Z,7.13
2023-03-05T07:46:36.247Z,14.60
2023-03-05T07:49:41.526Z,11.98
2023-03-05T07:52:44.740Z,6.03
2023-03-05T07:55:48.473Z,6.10
2023-03-05T07:58:51.811Z,5.95
2023-03-05T08:01:56.607Z,5.50
2023-03-05T08:04:59.964Z,5.88
2023-03-05T08:08:03.522Z,4.95
2023-03-05T08:11:07.532Z,6.68
2023-03-05T08:14:11.380Z,8.02
2023-03-05T08:17:15.948Z,7.45
2023-03-05T08:20:19.987Z,4.07
2023-03-05T08:23:23.231Z,3.72
2023-03-05T08:26:29.075Z,4.18
2023-03-05T08:29:32.233Z,3.95
2023-03-05T08:32:36.804Z,4.18
2023-03-05T08:35:40.207Z,4.07
2023-03-05T08:38:44.605Z,3.70
2023-03-05T08:41:47.858Z,4.15
2023-03-05T08:44:51.172Z,4.15
2023-03-05T08:47:57.227Z,4.68
2023-03-05T08:51:06.722Z,4.03
2023-03-05T08:54:10.956Z,2.87
2023-03-05T08:57:14.163Z,6.00
2023-03-05T09:00:18.023Z,3.25
2023-03-05T09:03:22.713Z,3.25
2023-03-05T09:06:26.321Z,3.22
2023-03-05T09:09:30.051Z,3.42
2023-03-05T09:12:33.396Z,3.97
2023-03-05T09:15:36.788Z,3.05
2023-03-05T09:18:42.077Z,3.13
2023-03-05T09:21:45.366Z,3.88
2023-03-05T09:24:48.609Z,4.43
2023-03-05T09:27:51.828Z,4.38
2023-03-05T09:30:55.295Z,3.17
2023-03-05T09:34:02.476Z,3.08
2023-03-05T09:37:05.991Z,3.10
2023-03-05T09:40:13.789Z,2.97
2023-03-05T09:43:33.756Z,4.32
2023-03-05T09:46:47.717Z,4.20
2023-03-05T09:50:02.171Z,3.58
2023-03-05T09:53:16.057Z,3.13
2023-03-05T09:56:23.992Z,12.73
2023-03-05T09:59:32.821Z,12.98
2023-03-05T10:02:38.858Z,2.70
2023-03-05T10:05:54.647Z,6.13
2023-03-05T10:09:03.983Z,4.30
2023-03-05T10:12:13.798Z,4.75
2023-03-05T10:15:22.041Z,4.85
2023-03-05T10:18:36.340Z,6.50
2023-03-05T10:21:48.288Z,2.47
2023-03-05T10:25:04.142Z,3.72
2023-03-05T10:28:17.824Z,7.10
2023-03-05T10:31:40.559Z,4.28
2023-03-05T10:35:12.264Z,4.25
2023-03-05T10:38:49.150Z,2.55
2023-03-05T10:42:05.895Z,4.38
2023-03-05T10:45:18.274Z,10.10
2023-03-05T10:48:33.308Z,5.40
2023-03-05T10:51:42.349Z,4.10
2023-03-05T10:54:47.471Z,2.85
2023-03-05T10:57:50.819Z,3.67
2023-03-05T11:01:06.409Z,3.63
2023-03-05T11:04:27.115Z,3.95
2023-03-05T11:07:37.971Z,4.22
2023-03-05T11:10:43.178Z,3.70
2023-03-05T11:13:55.733Z,4.05
2023-03-05T11:16:59.110Z,3.70
2023-03-05T11:20:34.978Z,4.28
2023-03-05T11:23:39.072Z,3.80
2023-03-05T11:26:50.711Z,8.73
2023-03-05T11:29:54.693Z,3.65
2023-03-05T11:33:15.539Z,5.03
2023-03-05T11:36:25.428Z,6.80
2023-03-05T11:39:30.444Z,6.25
2023-03-05T11:42:35.509Z,8.80
2023-03-05T11:45:40.112Z,4.97
2023-03-05T11:48:46.224Z,6.63
2023-03-05T11:51:58.236Z,7.03
2023-03-05T11:55:06.713Z,6.13
2023-03-05T11:58:29.594Z,5.35
2023-03-05T12:01:46.754Z,5.35
2023-03-05T12:04:51.556Z,4.53
2023-03-05T12:07:59.625Z,5.70
2023-03-05T12:11:07.330Z,5.38
2023-03-05T12:14:20.250Z,6.60
2023-03-05T12:17:31.540Z,4.45
2023-03-05T12:20:44.358Z,11.85
2023-03-05T12:23:53.599Z,5.88
2023-03-05T12:27:07.241Z,5.15
2023-03-05T12:30:46.528Z,4.85
2023-03-05T12:33:50.385Z,3.83
2023-03-05T12:36:55.665Z,5.75
2023-03-05T12:40:01.069Z,6.53
2023-03-05T12:43:05.390Z,5.28
2023-03-05T12:46:29.027Z,6.53
2023-03-05T12:49:39.540Z,6.80
2023-03-05T12:52:47.236Z,6.18
2023-03-05T12:56:02.006Z,5.00
2023-03-05T12:59:05.462Z,5.03
2023-03-05T13:02:23.111Z,5.53
2023-03-05T13:05:30.613Z,5.68
2023-03-05T13:08:37.324Z,4.93
2023-03-05T13:11:40.967Z,5.75
2023-03-05T13:14:46.557Z,15.45
2023-03-05T13:17:56.622Z,6.53
2023-03-05T13:21:05.494Z,7.60
2023-03-05T13:24:18.652Z,9.43
2023-03-05T13:27:25.716Z,11.75
2023-03-05T13:30:30.759Z,11.43
2023-03-05T13:33:37.495Z,9.43
2023-03-05T13:36:43.020Z,8.07
2023-03-05T13:39:55.074Z,9.35
2023-03-05T13:43:12.154Z,8.10
2023-03-05T13:46:25.980Z,9.52
2023-03-05T13:49:30.671Z,7.82
2023-03-05T13:52:36.080Z,8.27
2023-03-05T13:55:40.313Z,7.38
2023-03-05T13:58:53.294Z,9.15
2023-03-05T14:01:57.989Z,7.53
2023-03-05T14:05:03.303Z,12.15
2023-03-05T14:08:06.874Z,12.43
2023-03-05T14:11:15.342Z,16.70
2023-03-05T14:14:21.001Z,16.67
2023-03-05T14:17:33.396Z,24.27
2023-03-05T14:20:39.133Z,18.55
2023-03-05T14:23:45.036Z,15.98
2023-03-05T14:26:52.106Z,16.60
2023-03-05T14:29:56.868Z,21.40
2023-03-05T14:33:01.802Z,37.75
2023-03-05T14:36:10.426Z,59.47
2023-03-05T14:39:28.696Z,54.90
2023-03-05T14:42:38.386Z,24.77
2023-03-05T14:45:48.002Z,38.00
2023-03-05T14:48:51.921Z,40.50
2023-03-05T14:51:58.170Z,32.90
2023-03-05T14:55:02.047Z,57.30
2023-03-05T14:58:12.386Z,39.42
2023-03-05T15:04:20.250Z,24.58
2023-03-05T15:07:31.180Z,20.60
2023-03-05T15:10:35.520Z,19.25
2023-03-05T15:13:39.803Z,26.88
2023-03-05T15:16:46.722Z,25.25
2023-03-05T15:19:53.172Z,24.75
2023-03-05T15:23:04.142Z,21.20
2023-03-05T15:26:13.152Z,33.13
2023-03-05T15:29:16.729Z,30.63
2023-03-05T15:32:20.291Z,25.15
2023-03-05T15:35:26.831Z,22.52
2023-03-05T15:38:31.908Z,29.90
2023-03-05T15:41:36.225Z,46.92
2023-03-05T15:44:40.571Z,42.88
2023-03-05T15:47:44.252Z,28.08
2023-03-05T15:50:47.793Z,40.50
2023-03-05T15:53:59.905Z,37.75
2023-03-05T15:57:09.491Z,44.58
2023-03-05T16:00:16.072Z,41.45
2023-03-05T16:03:19.647Z,71.47
2023-03-05T16:06:32.510Z,51.45
2023-03-05T16:09:40.475Z,42.08
2023-03-05T16:12:47.307Z,34.15
2023-03-05T16:15:55.047Z,28.92
2023-03-05T16:19:04.195Z,27.55
2023-03-05T16:22:16.355Z,40.05
2023-03-05T16:25:23.560Z,27.48
2023-03-05T16:28:32.119Z,29.88
2023-03-05T16:31:42.156Z,38.75
2023-03-05T16:34:47.704Z,65.05
2023-03-05T16:37:56.053Z,31.63
2023-03-05T16:41:08.285Z,45.30
2023-03-05T16:44:13.438Z,25.55
2023-03-05T16:47:20.344Z,65.80
2023-03-05T16:50:33.666Z,54.47
2023-03-05T16:53:38.943Z,21.23
2023-03-05T16:56:49.727Z,24.83
2023-03-05T17:00:01.684Z,26.55
2023-03-05T17:03:07.052Z,41.15
2023-03-05T17:06:17.046Z,23.08
2023-03-05T17:09:24.577Z,25.20
2023-03-05T17:12:29.826Z,26.80
2023-03-05T17:15:34.091Z,28.55
2023-03-05T17:18:37.918Z,30.35
2023-03-05T17:21:42.735Z,32.30
2023-03-05T17:24:47.605Z,29.10
2023-03-05T17:27:55.326Z,30.30
2023-03-05T17:31:01.494Z,31.77
2023-03-05T17:34:05.363Z,36.08
2023-03-05T17:37:09.685Z,41.20
2023-03-05T17:40:15.419Z,35.35
2023-03-05T17:43:22.092Z,36.60
2023-03-05T17:46:26.475Z,29.55
2023-03-05T17:49:30.946Z,37.58
2023-03-05T17:52:39.875Z,33.83
2023-03-05T17:55:44.216Z,30.45
2023-03-05T17:58:50.642Z,32.45
2023-03-05T18:01:54.830Z,33.70
2023-03-05T18:05:04.289Z,31.50
2023-03-05T18:08:08.465Z,33.73
2023-03-05T18:11:14.586Z,39.47
2023-03-05T18:14:19.519Z,36.10
2023-03-05T18:17:23.846Z,35.75
2023-03-05T18:20:31.272Z,31.95
2023-03-05T18:23:34.813Z,29.70
2023-03-05T18:26:38.468Z,32.35
2023-03-05T18:29:46.708Z,35.42
2023-03-05T18:32:53.901Z,33.55
2023-03-05T18:36:02.297Z,31.52
2023-03-05T18:39:11.280Z,37.60
2023-03-05T18:42:20.258Z,38.70
2023-03-05T18:45:31.686Z,40.55
2023-03-05T18:48:36.314Z,42.33
2023-03-05T18:51:47.406Z,45.67
2023-03-05T18:54:52.526Z,48.35
2023-03-05T18:58:08.632Z,43.72
2023-03-05T19:01:20.935Z,53.22
2023-03-05T19:04:33.535Z,48.67
2023-03-05T19:07:49.849Z,44.45
2023-03-05T19:11:10.671Z,46.63
2023-03-05T19:14:15.797Z,43.55
2023-03-05T19:17:21.036Z,41.30
2023-03-05T19:20:24.676Z,42.67
2023-03-05T19:23:28.792Z,52.60
2023-03-05T19:26:32.208Z,39.70
2023-03-05T19:29:37.629Z,39.78
2023-03-05T19:32:43.033Z,42.22
2023-03-05T19:35:46.499Z,40.67
2023-03-05T19:38:49.875Z,44.75
2023-03-05T19:41:53.523Z,39.28
2023-03-05T19:44:59.652Z,39.70
2023-03-05T19:48:05.013Z,40.40
2023-03-05T19:51:11.496Z,35.85
2023-03-05T19:54:18.312Z,37.00
2023-03-05T19:57:21.698Z,34.22
2023-03-05T20:00:27.520Z,37.90
2023-03-05T20:03:32.902Z,36.90
2023-03-05T20:06:36.258Z,37.08
2023-03-05T20:09:40.320Z,38.22
2023-03-05T20:12:47.737Z,42.75
2023-03-05T20:15:51.168Z,41.65
2023-03-05T20:18:56.723Z,42.03
2023-03-05T20:21:59.961Z,40.42
2023-03-05T20:25:03.265Z,39.35
2023-03-05T20:28:06.552Z,37.55
2023-03-05T20:31:10.449Z,36.53
2023-03-05T20:34:17.241Z,39.08
2023-03-05T20:38:08.329Z,38.28
2023-03-05T20:41:21.805Z,37.00
2023-03-05T20:44:25.216Z,40.03
2023-03-05T20:47:40.946Z,43.67
2023-03-05T20:50:46.901Z,41.47
2023-03-05T20:53:50.621Z,41.90
2023-03-05T20:56:54.269Z,44.65
2023-03-05T20:59:57.593Z,42.90
2023-03-05T21:03:00.845Z,45.08
2023-03-05T21:06:07.136Z,44.58
2023-03-05T21:09:10.417Z,43.13
2023-03-05T21:12:13.653Z,42.90
2023-03-05T21:15:19.181Z,43.63
2023-03-05T21:18:23.701Z,46.72
2023-03-05T21:21:28.383Z,46.08
2023-03-05T21:25:05.687Z,47.13
2023-03-05T21:28:18.807Z,46.88
2023-03-05T21:31:23.801Z,46.95
2023-03-05T21:34:27.433Z,49.20
2023-03-05T21:37:32.508Z,47.45
2023-03-05T21:40:37.686Z,48.15
2023-03-05T21:43:40.952Z,45.08
2023-03-05T21:46:44.275Z,47.97
2023-03-05T21:49:47.632Z,43.58
2023-03-05T21:52:52.849Z,44.63
2023-03-05T21:56:24.021Z,44.25
2023-03-05T21:59:27.318Z,42.88
2023-03-05T22:02:30.563Z,44.70
2023-03-05T22:05:33.798Z,44.72
2023-03-05T22:08:38.923Z,45.50
2023-03-05T22:11:42.608Z,50.20
2023-03-05T22:14:45.786Z,45.75
2023-03-05T22:17:48.958Z,43.85
2023-03-05T22:20:52.390Z,44.55
2023-03-05T22:23:58.010Z,44.17
2023-03-05T22:27:01.930Z,43.35
2023-03-05T22:30:05.866Z,44.80
2023-03-05T22:33:09.695Z,43.40
2023-03-05T22:36:15.014Z,45.65
2023-03-05T22:39:19.658Z,50.92
2023-03-05T22:42:23.145Z,49.70
2023-03-05T22:45:26.329Z,48.45
2023-03-05T22:48:29.658Z,44.80
2023-03-05T22:51:32.900Z,42.60
2023-03-05T22:54:37.496Z,44.08
2023-03-05T22:57:41.366Z,41.33
2023-03-05T23:00:44.660Z,43.10
2023-03-05T23:04:47.496Z,45.45
2023-03-05T23:07:50.718Z,44.67
2023-03-05T23:10:55.275Z,41.88
2023-03-05T23:13:58.468Z,45.20
2023-03-05T23:17:01.655Z,44.35
2023-03-05T23:20:08.126Z,40.60
2023-03-05T23:23:11.494Z,41.92
2023-03-05T23:26:16.047Z,41.15
2023-03-05T23:30:08.058Z,40.40
2023-03-05T23:33:17.024Z,41.90
2023-03-05T23:36:24.363Z,42.67
2023-03-05T23:39:27.582Z,44.65
2023-03-05T23:42:32.875Z,48.60
2023-03-05T23:45:36.162Z,44.95
2023-03-05T23:48:39.436Z,41.58
2023-03-05T23:51:42.558Z,41.20
2023-03-05T23:54:45.751Z,39.25
2023-03-05T23:57:50.414Z,37.30
